Time;durP1;ratioP1;P1;durP2;ratioP2;P2;SDS_P1;SDS_P2;PMS_P1;PMS_P2;Temp;Humidity;BMP_temperature;BMP_pressure;BME280_temperature;BME280_humidity;BME280_pressure;Samples;Min_cycle;Max_cycle;Signal;HPM_P1;HPM_P2
2023/06/27 00:00:10;;;;;;;6.50;3.60;;;;;;;15.78;67.47;98823.23;107616;1254;60409;-39
2023/06/27 00:02:38;;;;;;;6.90;3.70;;;;;;;15.74;67.59;98825.60;107560;1252;60411;-39
2023/06/27 00:05:07;;;;;;;4.80;3.60;;;;;;;15.69;67.68;98820.44;107608;1257;72962;-38
2023/06/27 00:07:35;;;;;;;3.60;3.30;;;;;;;15.68;67.70;98813.64;107603;1251;65990;-38
2023/06/27 00:10:04;;;;;;;6.70;3.50;;;;;;;15.70;67.70;98810.41;107630;1257;73175;-39
2023/06/27 00:12:32;;;;;;;5.20;3.30;;;;;;;15.67;67.82;98803.27;107663;1251;60428;-39
2023/06/27 00:15:00;;;;;;;5.20;3.50;;;;;;;15.68;67.83;98802.09;107670;1254;60429;-39
2023/06/27 00:17:27;;;;;;;4.70;3.70;;;;;;;15.66;67.96;98800.00;107536;1255;72872;-39
2023/06/27 00:19:57;;;;;;;6.00;3.50;;;;;;;15.62;68.12;98803.33;107648;1254;67562;-39
2023/06/27 00:22:26;;;;;;;5.00;3.40;;;;;;;15.54;68.38;98806.84;107623;1251;72767;-39
2023/06/27 00:24:54;;;;;;;5.30;3.10;;;;;;;15.51;68.62;98806.39;107632;1252;61699;-38
2023/06/27 00:27:21;;;;;;;4.00;3.60;;;;;;;15.53;68.94;98809.96;107549;1253;60307;-39
2023/06/27 00:29:49;;;;;;;5.30;3.50;;;;;;;15.54;69.03;98811.59;107382;1253;73838;-39
2023/06/27 00:32:17;;;;;;;4.30;3.50;;;;;;;15.52;69.11;98813.42;107402;1253;66368;-38
2023/06/27 00:34:45;;;;;;;5.10;3.70;;;;;;;15.49;68.95;98817.17;107423;1253;71419;-39
2023/06/27 00:37:13;;;;;;;4.20;3.40;;;;;;;15.45;68.69;98815.48;107591;1254;60534;-39
2023/06/27 00:39:41;;;;;;;4.60;3.50;;;;;;;15.42;68.73;98815.05;107633;1254;59859;-39
2023/06/27 00:42:08;;;;;;;4.40;3.70;;;;;;;15.42;68.81;98814.27;107497;1253;73695;-39
2023/06/27 00:44:36;;;;;;;4.50;3.50;;;;;;;15.41;68.95;98813.02;107619;1255;67575;-38
2023/06/27 00:47:05;;;;;;;7.50;4.00;;;;;;;15.40;69.02;98811.63;107577;1254;71404;-39
2023/06/27 00:49:33;;;;;;;4.50;3.60;;;;;;;15.39;68.85;98810.95;107691;1254;60171;-39
2023/06/27 00:52:00;;;;;;;4.40;3.80;;;;;;;15.38;68.77;98810.88;107534;1250;60332;-39
2023/06/27 00:54:28;;;;;;;4.90;3.70;;;;;;;15.34;68.61;98806.23;107174;1259;73869;-39
2023/06/27 00:56:56;;;;;;;6.40;4.20;;;;;;;15.29;68.55;98811.42;107336;1253;66943;-39
2023/06/27 00:59:25;;;;;;;6.40;3.40;;;;;;;15.29;68.40;98813.38;107288;1254;70433;-38
2023/06/27 01:01:53;;;;;;;5.70;3.80;;;;;;;15.31;68.41;98814.91;107476;1254;60499;-38
2023/06/27 01:04:20;;;;;;;4.80;3.70;;;;;;;15.31;68.26;98812.34;107658;1253;60323;-38
2023/06/27 01:07:04;;;;;;;4.60;4.10;;;;;;;15.26;68.17;98812.92;107337;1252;73863;-39
2023/06/27 01:09:49;;;;;;;4.10;3.70;;;;;;;15.14;68.37;98809.91;107499;1254;67868;-39
2023/06/27 01:12:23;;;;;;;6.50;4.10;;;;;;;15.07;68.62;98811.77;107765;1255;71047;-38
2023/06/27 01:14:51;;;;;;;5.20;3.80;;;;;;;15.01;68.71;98810.77;107483;1251;239477;-39
2023/06/27 01:18:35;;;;;;;7.30;3.60;;;;;;;15.05;68.47;98803.05;104297;1292;600366;-37
2023/06/27 01:21:03;;;;;;;4.40;4.00;;;;;;;15.03;68.49;98800.41;106616;1267;59267;-37
2023/06/27 01:23:33;;;;;;;5.00;3.60;;;;;;;15.01;68.80;98807.52;106489;1272;59330;-39
2023/06/27 01:26:03;;;;;;;6.30;4.00;;;;;;;15.00;68.95;98808.01;106557;1267;72292;-39
2023/06/27 01:28:33;;;;;;;6.00;4.20;;;;;;;14.93;69.08;98809.37;106651;1267;67084;-39
2023/06/27 01:31:03;;;;;;;5.70;3.50;;;;;;;14.86;69.14;98807.01;106479;1267;73045;-39
2023/06/27 01:33:46;;;;;;;6.10;3.70;;;;;;;14.86;69.27;98805.06;106600;1263;61112;-39
2023/06/27 01:36:17;;;;;;;5.20;4.00;;;;;;;14.92;69.15;98805.56;106806;1260;60087;-38
2023/06/27 01:39:17;;;;;;;4.40;3.80;;;;;;;14.92;69.09;98804.23;107020;1260;72308;-39
2023/06/27 01:41:47;;;;;;;5.20;4.10;;;;;;;14.90;69.15;98800.42;106829;1261;67608;-39
2023/06/27 01:44:14;;;;;;;;;;;;;;;14.88;69.46;98794.91;106951;1261;72713;-39
2023/06/27 01:46:42;;;;;;;5.30;4.20;;;;;;;14.82;69.66;98791.98;107016;1260;59614;-39
2023/06/27 01:49:10;;;;;;;4.00;3.40;;;;;;;14.77;69.54;98790.14;106994;1261;60031;-40
2023/06/27 01:51:40;;;;;;;4.50;3.60;;;;;;;14.82;69.55;98791.75;107216;1257;73503;-39
2023/06/27 01:54:07;;;;;;;5.00;3.70;;;;;;;14.88;69.52;98797.17;107262;1257;66420;-40
2023/06/27 01:56:35;;;;;;;4.50;4.00;;;;;;;14.90;69.49;98799.89;107271;1257;72652;-40
2023/06/27 01:59:03;;;;;;;7.60;3.80;;;;;;;14.89;69.46;98803.95;107272;1257;59612;-40
2023/06/27 02:01:31;;;;;;;7.70;4.30;;;;;;;14.86;69.48;98808.49;107317;1257;59535;-39
2023/06/27 02:04:01;;;;;;;5.90;3.80;;;;;;;14.83;69.43;98807.50;107223;1257;71398;-40
2023/06/27 02:06:30;;;;;;;7.50;3.90;;;;;;;14.81;69.37;98805.80;107107;1256;67724;-40
2023/06/27 02:08:57;;;;;;;6.00;3.60;;;;;;;14.77;69.36;98805.89;107222;1257;73145;-38
2023/06/27 02:11:25;;;;;;;4.70;3.50;;;;;;;14.76;69.34;98805.91;107256;1257;61689;-38
2023/06/27 02:13:53;;;;;;;4.90;4.30;;;;;;;14.79;69.36;98807.91;107329;1257;60519;-38
2023/06/27 02:16:20;;;;;;;6.70;4.10;;;;;;;14.78;69.34;98806.83;107224;1261;73047;-39
2023/06/27 02:18:48;;;;;;;6.50;4.30;;;;;;;14.75;69.34;98803.26;107273;1257;67594;-38
2023/06/27 02:21:16;;;;;;;5.00;4.10;;;;;;;14.70;69.69;98805.34;107256;1262;71699;-39
2023/06/27 02:23:44;;;;;;;5.90;4.40;;;;;;;14.67;69.98;98808.38;107298;1261;60505;-38
2023/06/27 02:26:11;;;;;;;5.50;3.80;;;;;;;14.66;70.07;98811.20;107082;1257;59560;-39
2023/06/27 02:28:42;;;;;;;4.50;3.70;;;;;;;14.63;69.95;98812.46;107282;1257;71733;-39
2023/06/27 02:31:11;;;;;;;6.30;4.30;;;;;;;14.63;70.07;98809.97;107218;1257;67878;-39
2023/06/27 02:33:39;;;;;;;5.80;4.40;;;;;;;14.58;70.29;98812.02;107191;1257;72751;-39
2023/06/27 02:36:07;;;;;;;7.00;4.20;;;;;;;14.53;70.72;98808.00;107239;1258;60120;-38
2023/06/27 02:38:34;;;;;;;5.60;4.60;;;;;;;14.54;71.05;98802.86;107232;1257;60018;-39
2023/06/27 02:41:02;;;;;;;5.90;4.20;;;;;;;14.58;71.14;98798.15;107207;1257;73055;-39
2023/06/27 02:43:32;;;;;;;5.70;4.10;;;;;;;14.66;71.07;98795.14;107253;1257;66096;-39
2023/06/27 02:46:00;;;;;;;4.70;3.90;;;;;;;14.74;71.01;98792.98;107028;1263;72673;-39
2023/06/27 02:48:28;;;;;;;4.70;4.10;;;;;;;14.82;70.93;98787.70;107236;1258;59620;-38
2023/06/27 02:50:56;;;;;;;5.50;4.00;;;;;;;14.87;70.95;98787.27;107135;1257;60024;-38
2023/06/27 02:53:25;;;;;;;5.70;4.50;;;;;;;14.88;71.21;98781.56;107154;1256;73037;-39
2023/06/27 02:55:53;;;;;;;5.40;4.20;;;;;;;14.88;71.35;98778.45;107216;1257;66614;-39
2023/06/27 02:58:22;;;;;;;4.20;3.40;;;;;;;14.89;71.43;98773.77;106952;1258;74712;-39
2023/06/27 03:00:53;;;;;;;5.90;3.70;;;;;;;14.98;71.63;98770.58;107197;1257;59724;-38
2023/06/27 03:03:21;;;;;;;3.80;3.40;;;;;;;15.03;71.71;98770.37;107128;1263;59508;-39
2023/06/27 03:05:51;;;;;;;4.30;3.90;;;;;;;15.06;71.92;98772.45;107100;1262;75640;-40
2023/06/27 03:08:29;;;;;;;6.00;4.00;;;;;;;15.10;72.05;98775.23;107272;1257;66279;-40
2023/06/27 03:11:05;;;;;;;8.40;3.80;;;;;;;15.14;72.02;98776.91;107095;1257;71727;-38
2023/06/27 03:13:38;;;;;;;4.50;3.90;;;;;;;15.17;72.17;98773.14;107141;1257;61929;-40
2023/06/27 03:16:20;;;;;;;5.00;3.70;;;;;;;15.24;72.30;98773.38;107235;1257;59586;-39
2023/06/27 03:22:21;;;;;;;5.40;3.80;;;;;;;15.38;72.30;98768.34;107186;1257;66495;-39
2023/06/27 03:24:49;;;;;;;4.00;3.60;;;;;;;15.39;72.21;98771.52;107156;1262;71517;-39
2023/06/27 03:27:17;;;;;;;6.40;3.80;;;;;;;15.44;72.17;98766.18;107044;1260;60405;-39
2023/06/27 03:29:45;;;;;;;4.40;4.00;;;;;;;15.52;71.82;98768.30;106934;1257;60029;-39
2023/06/27 03:32:13;;;;;;;4.30;3.90;;;;;;;15.55;71.64;98768.41;107239;1257;73012;-39
2023/06/27 03:34:41;;;;;;;5.10;4.30;;;;;;;15.57;71.67;98766.52;107108;1261;68089;-39
2023/06/27 03:37:16;;;;;;;4.80;4.30;;;;;;;15.61;71.61;98768.44;107100;1260;70691;-39
2023/06/27 03:39:47;;;;;;;5.00;4.00;;;;;;;15.63;71.54;98771.14;107013;1258;62237;-39
2023/06/27 03:42:16;;;;;;;5.20;3.80;;;;;;;15.68;71.46;98768.44;107140;1262;60017;-39
2023/06/27 03:44:44;;;;;;;5.40;4.10;;;;;;;15.76;71.32;98767.10;107219;1257;73015;-39
2023/06/27 03:47:12;;;;;;;5.30;4.50;;;;;;;15.80;71.21;98764.94;106999;1257;67765;-39
2023/06/27 03:49:40;;;;;;;5.70;4.20;;;;;;;15.80;71.07;98767.67;107055;1262;72658;-39
2023/06/27 03:52:08;;;;;;;4.90;4.40;;;;;;;15.76;70.97;98763.35;106977;1262;60079;-39
2023/06/27 03:54:35;;;;;;;8.10;4.10;;;;;;;15.72;71.27;98758.09;107082;1257;60019;-40
2023/06/27 03:57:04;;;;;;;6.80;3.60;;;;;;;15.75;71.47;98753.99;107062;1262;73162;-40
2023/06/27 03:59:32;;;;;;;4.50;4.00;;;;;;;15.84;71.52;98753.25;107101;1260;67888;-40
2023/06/27 04:02:00;;;;;;;5.80;4.20;;;;;;;15.93;71.51;98753.70;107223;1258;71372;-40
2023/06/27 04:04:28;;;;;;;5.00;3.90;;;;;;;15.99;71.63;98750.02;107162;1257;59703;-39
2023/06/27 04:06:56;;;;;;;4.30;3.90;;;;;;;16.05;71.53;98742.60;107132;1257;60042;-40
2023/06/27 04:09:24;;;;;;;5.10;4.00;;;;;;;16.09;71.38;98740.37;108981;1257;71729;-39
2023/06/27 04:11:51;;;;;;;6.60;4.30;;;;;;;16.14;71.05;98744.36;108947;1257;67892;-39
2023/06/27 04:14:19;;;;;;;4.90;3.70;;;;;;;16.23;71.04;98745.87;108769;1257;70405;-39
2023/06/27 04:16:47;;;;;;;4.90;4.20;;;;;;;16.31;70.93;98746.00;106929;1261;60108;-38
2023/06/27 04:19:15;;;;;;;4.20;3.80;;;;;;;16.37;70.76;98746.32;106978;1263;59125;-39
2023/06/27 04:21:43;;;;;;;5.10;4.60;;;;;;;16.40;70.33;98743.84;107015;1258;72861;-39
2023/06/27 04:24:11;;;;;;;5.00;4.00;;;;;;;16.39;70.38;98742.45;107148;1258;67719;-38
2023/06/27 04:26:39;;;;;;;3.40;3.00;;;;;;;16.43;70.52;98744.82;107173;1258;71692;-38
2023/06/27 04:29:10;;;;;;;5.20;3.80;;;;;;;16.52;70.24;98738.34;107183;1258;59621;-37
2023/06/27 04:31:43;;;;;;;4.00;3.30;;;;;;;16.60;70.01;98738.64;107240;1258;62573;-39
2023/06/27 04:34:36;;;;;;;3.60;3.30;;;;;;;16.65;69.69;98735.38;107363;1258;72903;-38
2023/06/27 04:37:22;;;;;;;3.80;3.50;;;;;;;16.70;69.77;98735.45;107200;1257;66465;-38
2023/06/27 04:39:52;;;;;;;4.70;3.30;;;;;;;16.71;69.61;98737.22;107119;1257;72686;-37
2023/06/27 04:42:20;;;;;;;4.90;3.80;;;;;;;16.74;69.20;98744.77;106931;1263;59612;-38
2023/06/27 04:44:48;;;;;;;4.50;3.90;;;;;;;16.78;69.49;98743.30;107106;1262;60112;-37
2023/06/27 04:47:15;;;;;;;3.80;3.50;;;;;;;16.82;69.36;98744.26;107106;1263;71747;-37
2023/06/27 04:49:43;;;;;;;4.00;3.60;;;;;;;16.82;69.13;98745.34;107176;1258;67769;-37
2023/06/27 04:52:11;;;;;;;4.50;3.40;;;;;;;16.83;68.99;98746.97;107061;1258;71733;-38
2023/06/27 04:54:38;;;;;;;4.30;3.50;;;;;;;16.88;68.90;98751.73;107210;1258;61702;-37
2023/06/27 04:57:06;;;;;;;4.50;3.80;;;;;;;16.96;68.48;98755.06;107129;1262;60122;-37
2023/06/27 04:59:39;;;;;;;3.80;3.30;;;;;;;17.01;68.36;98749.81;107213;1257;73076;-37
2023/06/27 05:02:07;;;;;;;4.40;4.00;;;;;;;17.07;68.30;98757.60;107275;1258;67904;-37
2023/06/27 05:04:35;;;;;;;4.30;3.60;;;;;;;17.10;67.42;98757.56;107200;1262;72646;-37
2023/06/27 05:07:06;;;;;;;6.00;4.10;;;;;;;17.10;67.64;98759.58;107264;1257;60037;-37
2023/06/27 05:09:34;;;;;;;4.50;3.20;;;;;;;17.14;67.46;98762.19;107074;1258;60572;-37
2023/06/27 05:12:02;;;;;;;6.00;3.40;;;;;;;17.18;67.21;98764.54;107119;1257;71790;-37
2023/06/27 05:14:30;;;;;;;4.40;3.60;;;;;;;17.22;67.05;98766.18;107109;1257;67891;-37
2023/06/27 05:16:57;;;;;;;4.50;3.70;;;;;;;17.24;66.97;98765.52;107106;1260;73239;-38
2023/06/27 05:19:25;;;;;;;3.90;3.40;;;;;;;17.29;66.85;98768.02;107190;1260;60236;-37
2023/06/27 05:21:53;;;;;;;4.10;3.70;;;;;;;17.33;66.40;98767.70;107158;1262;59473;-37
2023/06/27 05:24:20;;;;;;;4.10;3.20;;;;;;;17.31;65.84;98769.39;107212;1256;70769;-37
2023/06/27 05:26:48;;;;;;;4.60;3.20;;;;;;;17.30;66.21;98765.27;106997;1261;66587;-38
2023/06/27 05:29:16;;;;;;;3.60;3.00;;;;;;;17.38;65.81;98763.23;107126;1261;71765;-38
2023/06/27 05:31:44;;;;;;;5.10;3.60;;;;;;;17.48;65.77;98764.23;107126;1257;62360;-37
2023/06/27 05:34:12;;;;;;;6.60;3.90;;;;;;;17.55;65.28;98765.34;107038;1262;60405;-37
2023/06/27 05:36:40;;;;;;;3.90;3.50;;;;;;;17.54;65.51;98756.36;107023;1257;73860;-37
2023/06/27 05:39:07;;;;;;;4.00;3.50;;;;;;;17.59;65.78;98746.59;107023;1257;65922;-37
2023/06/27 05:41:35;;;;;;;6.60;3.60;;;;;;;17.66;65.86;98742.93;106984;1262;70444;-37
2023/06/27 05:44:02;;;;;;;3.70;3.30;;;;;;;17.77;65.68;98741.77;106999;1258;60525;-38
2023/06/27 05:46:34;;;;;;;4.00;3.60;;;;;;;17.90;65.07;98744.88;107104;1257;60519;-38
2023/06/27 05:49:02;;;;;;;4.00;3.30;;;;;;;17.98;64.76;98741.95;107203;1258;71609;-38
2023/06/27 05:51:30;;;;;;;3.80;3.40;;;;;;;18.09;64.10;98744.08;107200;1262;66455;-37
2023/06/27 05:53:57;;;;;;;4.90;2.80;;;;;;;18.16;63.87;98738.23;107205;1257;72723;-38
2023/06/27 05:56:25;;;;;;;3.70;3.40;;;;;;;18.24;63.54;98740.48;107195;1261;60444;-37
2023/06/27 05:58:53;;;;;;;3.80;3.40;;;;;;;18.34;63.25;98744.47;107268;1258;60529;-38
2023/06/27 06:01:20;;;;;;;4.40;3.60;;;;;;;18.43;62.74;98749.30;107196;1260;73912;-37
2023/06/27 06:03:48;;;;;;;4.00;3.30;;;;;;;18.42;60.99;98753.63;107263;1260;67905;-38
2023/06/27 06:06:16;;;;;;;4.30;3.40;;;;;;;18.34;60.85;98754.61;107233;1260;71048;-37
2023/06/27 06:08:43;;;;;;;5.40;3.80;;;;;;;18.30;61.20;98749.75;107218;1260;60422;-38
2023/06/27 06:11:11;;;;;;;3.60;3.10;;;;;;;18.32;62.02;98750.98;107273;1260;60255;-38
2023/06/27 06:13:38;;;;;;;5.10;3.20;;;;;;;18.39;61.14;98745.23;107262;1256;72558;-37
2023/06/27 06:16:06;;;;;;;4.10;2.90;;;;;;;18.46;60.87;98747.05;107279;1255;67654;-38
2023/06/27 06:18:34;;;;;;;3.20;2.80;;;;;;;18.50;59.67;98747.64;107269;1261;71455;-38
2023/06/27 06:21:01;;;;;;;3.40;3.10;;;;;;;18.50;59.71;98748.11;107222;1257;60401;-38
2023/06/27 06:23:30;;;;;;;5.80;3.40;;;;;;;18.55;60.14;98744.27;107280;1258;60457;-38
2023/06/27 06:25:57;;;;;;;3.30;3.00;;;;;;;18.64;60.20;98745.09;107278;1260;73866;-38
2023/06/27 06:28:25;;;;;;;3.80;3.10;;;;;;;18.69;59.31;98743.33;107222;1257;67603;-38
2023/06/27 06:30:53;;;;;;;3.30;2.90;;;;;;;18.68;58.44;98739.65;107180;1258;72670;-37
2023/06/27 06:33:22;;;;;;;3.70;3.40;;;;;;;18.66;59.54;98737.41;107208;1262;60504;-37
2023/06/27 06:35:50;;;;;;;3.80;3.20;;;;;;;18.70;59.97;98739.60;107265;1258;60370;-37
2023/06/27 06:38:17;;;;;;;4.30;3.70;;;;;;;18.74;59.50;98739.34;107188;1257;73896;-37
2023/06/27 06:40:45;;;;;;;3.70;3.40;;;;;;;18.76;60.07;98736.33;107183;1257;68650;-38
2023/06/27 06:43:13;;;;;;;3.70;3.30;;;;;;;18.77;60.23;98743.83;107203;1262;73026;-38
2023/06/27 06:45:41;;;;;;;3.80;3.40;;;;;;;18.80;59.58;98749.41;107152;1257;62451;-38
2023/06/27 06:48:09;;;;;;;3.60;3.00;;;;;;;18.86;59.08;98751.85;107294;1257;60598;-38
2023/06/27 06:50:37;;;;;;;4.30;3.20;;;;;;;18.88;58.56;98751.96;107213;1257;74214;-38
2023/06/27 06:53:06;;;;;;;3.90;3.50;;;;;;;18.85;59.35;98752.34;107292;1257;66793;-38
2023/06/27 06:55:34;;;;;;;4.70;3.20;;;;;;;18.86;59.78;98749.34;107246;1258;72735;-38
2023/06/27 06:58:01;;;;;;;3.40;3.10;;;;;;;18.94;58.06;98739.26;107209;1257;60577;-38
2023/06/27 07:00:30;;;;;;;4.10;2.70;;;;;;;19.01;56.82;98741.60;107185;1257;60485;-38
2023/06/27 07:02:57;;;;;;;3.40;2.80;;;;;;;19.06;56.09;98733.52;107201;1257;73809;-38
2023/06/27 07:05:25;;;;;;;5.40;3.10;;;;;;;19.13;55.57;98734.84;107237;1257;66623;-38
2023/06/27 07:07:53;;;;;;;3.60;3.30;;;;;;;19.22;55.77;98732.27;107208;1257;72750;-38
2023/06/27 07:10:20;;;;;;;3.50;3.10;;;;;;;19.31;57.19;98729.58;107185;1257;60315;-38
2023/06/27 07:12:48;;;;;;;3.30;3.00;;;;;;;19.41;56.78;98731.05;107258;1257;60058;-38
2023/06/27 07:15:17;;;;;;;3.50;3.20;;;;;;;19.45;55.43;98736.68;107184;1257;73861;-38
2023/06/27 07:17:45;;;;;;;3.90;3.50;;;;;;;19.49;56.00;98736.52;107099;1257;67586;-38
2023/06/27 07:20:12;;;;;;;3.40;2.90;;;;;;;19.57;55.94;98736.05;107083;1263;71674;-38
2023/06/27 07:22:40;;;;;;;3.50;2.80;;;;;;;19.66;55.56;98739.36;106993;1261;60263;-38
2023/06/27 07:25:08;;;;;;;3.00;2.80;;;;;;;19.75;54.25;98736.66;107188;1257;60192;-38
2023/06/27 07:27:36;;;;;;;6.00;3.10;;;;;;;19.80;53.73;98729.52;107140;1257;73889;-38
2023/06/27 07:30:04;;;;;;;4.60;3.10;;;;;;;19.85;54.42;98725.61;107169;1257;66927;-39
2023/06/27 07:32:32;;;;;;;3.50;3.20;;;;;;;19.94;54.50;98719.06;107194;1262;72690;-39
2023/06/27 07:34:59;;;;;;;4.00;3.40;;;;;;;20.00;54.22;98716.86;107178;1257;60473;-39
2023/06/27 07:37:27;;;;;;;4.30;3.20;;;;;;;20.04;55.65;98716.50;107166;1257;60264;-39
2023/06/27 07:39:54;;;;;;;3.20;2.90;;;;;;;20.13;55.49;98716.67;107216;1257;74353;-39
2023/06/27 07:42:23;;;;;;;3.30;3.00;;;;;;;20.21;54.53;98713.38;107188;1262;67756;-39
2023/06/27 07:44:50;;;;;;;3.40;2.90;;;;;;;20.29;54.11;98712.12;107196;1262;73172;-39
2023/06/27 07:47:18;;;;;;;3.40;2.80;;;;;;;20.41;54.11;98710.91;107188;1258;60312;-36
2023/06/27 07:49:46;;;;;;;3.20;2.90;;;;;;;20.55;54.11;98713.61;107167;1257;60435;-37
2023/06/27 07:52:13;;;;;;;4.60;3.10;;;;;;;20.69;53.48;98708.59;107063;1257;72578;-37
2023/06/27 07:54:41;;;;;;;2.90;2.60;;;;;;;20.82;53.27;98710.60;107203;1257;67797;-38
2023/06/27 07:57:09;;;;;;;3.60;2.80;;;;;;;20.96;52.92;98713.77;107209;1257;73137;-38
2023/06/27 07:59:36;;;;;;;3.20;2.80;;;;;;;21.11;53.00;98711.07;107185;1257;60546;-38
2023/06/27 08:02:04;;;;;;;3.20;2.80;;;;;;;21.22;51.71;98708.50;107142;1257;60418;-38
2023/06/27 08:04:32;;;;;;;2.90;2.70;;;;;;;21.28;52.09;98702.70;107192;1256;73829;-38
2023/06/27 08:07:00;;;;;;;4.40;3.00;;;;;;;21.36;51.12;98710.05;107203;1262;66336;-38
2023/06/27 08:09:28;;;;;;;3.50;2.80;;;;;;;21.34;51.18;98705.66;107089;1257;72757;-38
2023/06/27 08:11:55;;;;;;;3.90;2.80;;;;;;;21.32;51.59;98698.08;107293;1258;59423;-39
2023/06/27 08:14:23;;;;;;;3.50;3.00;;;;;;;21.40;52.52;98695.03;107134;1257;60325;-39
2023/06/27 08:16:51;;;;;;;3.90;2.90;;;;;;;21.53;51.80;98693.70;107042;1258;73861;-39
2023/06/27 08:19:18;;;;;;;3.20;2.90;;;;;;;21.66;51.18;98692.27;107135;1260;67741;-39
2023/06/27 08:21:46;;;;;;;2.60;2.40;;;;;;;21.79;50.48;98688.77;107229;1257;72660;-39
2023/06/27 08:24:14;;;;;;;4.70;3.00;;;;;;;21.88;50.34;98688.14;107152;1257;60315;-39
2023/06/27 08:26:41;;;;;;;3.30;3.00;;;;;;;21.94;49.82;98683.30;107084;1257;60270;-39
2023/06/27 08:29:09;;;;;;;4.70;2.80;;;;;;;21.98;50.33;98684.80;107135;1257;74255;-39
2023/06/27 08:31:37;;;;;;;3.40;3.00;;;;;;;22.05;50.17;98679.07;107095;1260;66946;-39
2023/06/27 08:34:04;;;;;;;2.70;2.50;;;;;;;22.16;49.82;98681.58;107202;1257;72801;-39
2023/06/27 08:36:32;;;;;;;2.80;2.60;;;;;;;22.21;48.66;98675.73;107126;1260;60396;-39
2023/06/27 08:39:00;;;;;;;3.70;2.90;;;;;;;22.21;49.67;98672.02;107181;1256;60399;-39
2023/06/27 08:41:27;;;;;;;4.70;2.70;;;;;;;22.29;49.93;98672.17;107174;1258;74301;-39
2023/06/27 08:43:55;;;;;;;4.60;2.90;;;;;;;22.37;48.95;98664.81;107218;1257;67623;-39
2023/06/27 08:46:23;;;;;;;5.30;2.80;;;;;;;22.43;49.29;98664.34;107222;1257;71446;-40
2023/06/27 08:48:52;;;;;;;2.90;2.60;;;;;;;22.48;49.07;98665.95;106938;1258;60491;-39
2023/06/27 08:51:21;;;;;;;3.90;3.00;;;;;;;22.49;48.95;98668.83;107349;1257;58746;-38
2023/06/27 08:53:50;;;;;;;3.20;2.80;;;;;;;22.53;49.14;98677.10;107088;1257;72711;-37
2023/06/27 08:56:17;;;;;;;3.70;2.80;;;;;;;22.65;48.96;98671.48;107072;1263;67609;-38
2023/06/27 08:58:46;;;;;;;3.40;2.80;;;;;;;22.78;48.38;98671.75;107232;1257;72769;-37
2023/06/27 09:01:14;;;;;;;3.50;2.80;;;;;;;22.88;48.25;98667.27;107224;1257;60472;-38
2023/06/27 09:03:42;;;;;;;4.20;3.30;;;;;;;22.98;47.88;98669.50;106890;1266;61987;-37
2023/06/27 09:06:11;;;;;;;3.10;2.80;;;;;;;23.09;48.06;98666.94;107165;1257;73843;-38
2023/06/27 09:08:39;;;;;;;3.90;3.30;;;;;;;23.17;47.76;98667.73;107103;1257;66332;-38
2023/06/27 09:11:08;;;;;;;3.30;3.00;;;;;;;23.24;47.47;98668.71;107066;1258;72752;-38
2023/06/27 09:13:37;;;;;;;;;;;;;;;23.26;47.16;98673.05;107114;1256;60456;-38
2023/06/27 09:16:05;;;;;;;3.30;2.90;;;;;;;23.22;47.77;98669.11;107112;1260;61854;-38
2023/06/27 09:18:36;;;;;;;3.20;2.90;;;;;;;23.25;47.51;98665.52;107161;1257;73877;-39
2023/06/27 09:21:04;;;;;;;4.10;2.60;;;;;;;23.38;48.13;98670.25;107216;1262;67095;-38
2023/06/27 09:23:31;;;;;;;3.10;2.80;;;;;;;23.52;47.90;98663.06;107067;1258;72684;-38
2023/06/27 09:26:09;;;;;;;3.50;2.90;;;;;;;23.66;47.29;98665.14;107133;1257;60406;-38
2023/06/27 09:28:45;;;;;;;3.80;3.00;;;;;;;23.77;46.97;98667.38;107173;1257;60407;-38
2023/06/27 09:31:15;;;;;;;3.10;2.80;;;;;;;23.83;46.25;98664.58;107248;1256;73861;-39
2023/06/27 09:33:44;;;;;;;3.60;3.30;;;;;;;23.89;46.26;98670.59;107222;1260;67512;-39
2023/06/27 09:36:31;;;;;;;3.80;2.70;;;;;;;23.93;45.59;98672.30;107219;1258;73000;-39
2023/06/27 09:39:03;;;;;;;4.50;3.10;;;;;;;23.95;45.95;98674.93;107195;1257;60389;-39
2023/06/27 09:41:50;;;;;;;3.40;3.00;;;;;;;24.03;45.97;98675.46;107102;1257;60348;-39
2023/06/27 09:44:22;;;;;;;2.80;2.40;;;;;;;24.10;44.59;98668.36;107171;1257;73873;-39
2023/06/27 09:46:52;;;;;;;3.50;2.70;;;;;;;24.08;44.46;98674.64;107220;1257;68354;-39
2023/06/27 09:49:21;;;;;;;3.80;2.70;;;;;;;24.04;44.57;98671.46;107211;1257;72701;-39
2023/06/27 09:51:53;;;;;;;3.40;2.70;;;;;;;24.01;45.23;98669.06;107187;1256;60169;-39
2023/06/27 09:54:22;;;;;;;3.10;2.70;;;;;;;24.06;44.39;98668.80;107191;1257;60303;-39
2023/06/27 09:56:50;;;;;;;2.80;2.60;;;;;;;24.09;44.20;98662.27;107044;1257;72564;-39
2023/06/27 09:59:23;;;;;;;3.80;3.10;;;;;;;24.07;44.57;98663.02;107038;1258;67751;-39
2023/06/27 10:01:55;;;;;;;3.50;3.10;;;;;;;24.07;44.88;98661.88;107057;1257;72677;-39
2023/06/27 10:04:24;;;;;;;3.30;2.90;;;;;;;24.11;45.17;98662.97;107115;1257;60505;-39
2023/06/27 10:06:55;;;;;;;2.90;2.70;;;;;;;24.20;44.55;98665.64;107260;1257;60506;-39
2023/06/27 10:09:22;;;;;;;3.30;2.80;;;;;;;24.24;43.59;98659.53;107078;1262;73851;-39
2023/06/27 10:11:50;;;;;;;5.00;3.10;;;;;;;24.24;44.30;98658.88;107161;1257;67289;-39
2023/06/27 10:14:20;;;;;;;3.40;2.90;;;;;;;24.28;44.43;98660.19;107235;1257;72680;-39
2023/06/27 10:16:48;;;;;;;3.00;2.80;;;;;;;24.37;44.74;98663.56;107162;1257;61431;-38
2023/06/27 10:19:15;;;;;;;3.50;2.80;;;;;;;24.53;44.56;98654.36;107182;1262;60344;-39
2023/06/27 10:21:43;;;;;;;3.00;2.80;;;;;;;24.72;43.94;98652.09;107183;1257;73845;-39
2023/06/27 10:24:11;;;;;;;3.20;2.90;;;;;;;24.93;43.75;98651.18;107162;1257;67670;-39
2023/06/27 10:26:38;;;;;;;4.40;2.90;;;;;;;25.11;43.54;98652.85;106995;1257;71485;-39
2023/06/27 10:29:15;;;;;;;4.40;3.10;;;;;;;25.29;43.36;98645.24;107104;1257;60362;-39
2023/06/27 10:31:45;;;;;;;2.90;2.60;;;;;;;25.51;42.82;98634.73;107178;1257;60338;-39
2023/06/27 10:34:18;;;;;;;2.70;2.40;;;;;;;25.64;41.73;98635.34;107201;1257;75969;-39
2023/06/27 10:37:05;;;;;;;3.00;2.70;;;;;;;25.61;41.36;98637.82;107235;1257;66057;-39
2023/06/27 10:39:34;;;;;;;3.60;2.80;;;;;;;25.49;41.40;98634.16;107075;1257;71972;-39
2023/06/27 10:42:20;;;;;;;2.80;2.60;;;;;;;25.42;42.37;98636.30;107308;1257;60551;-39
2023/06/27 10:44:53;;;;;;;9.20;2.80;;;;;;;25.54;41.94;98643.45;107261;1257;60124;-39
2023/06/27 10:47:21;;;;;;;3.00;2.70;;;;;;;25.71;42.12;98638.35;107237;1257;73902;-39
2023/06/27 10:49:49;;;;;;;3.10;2.70;;;;;;;25.92;40.94;98643.23;107193;1257;67554;-39
2023/06/27 10:52:20;;;;;;;3.10;2.70;;;;;;;25.91;40.49;98646.95;107245;1257;73145;-39
2023/06/27 10:55:13;;;;;;;4.00;2.80;;;;;;;25.81;41.45;98643.20;107258;1257;60511;-39
2023/06/27 10:57:47;;;;;;;4.10;3.10;;;;;;;25.84;41.10;98645.02;107223;1257;60035;-39
2023/06/27 11:00:23;;;;;;;2.90;2.60;;;;;;;25.88;40.81;98639.20;107363;1256;72546;-39
2023/06/27 11:02:54;;;;;;;3.40;2.80;;;;;;;25.91;41.06;98639.17;107366;1257;68520;-39
2023/06/27 11:05:50;;;;;;;2.80;2.50;;;;;;;25.97;41.67;98640.24;107237;1257;72635;-39
2023/06/27 11:08:19;;;;;;;3.30;2.80;;;;;;;26.08;41.01;98633.29;107233;1257;60407;-39
2023/06/27 11:11:07;;;;;;;3.20;2.70;;;;;;;26.21;40.62;98628.09;107281;1257;60503;-37
2023/06/27 11:13:37;;;;;;;3.80;2.90;;;;;;;26.37;40.39;98629.86;107041;1257;73899;-37
2023/06/27 11:16:05;;;;;;;3.00;2.60;;;;;;;26.56;39.61;98630.36;106979;1257;68034;-37
2023/06/27 11:18:34;;;;;;;3.20;2.90;;;;;;;26.57;38.82;98633.46;107098;1257;72480;-38
2023/06/27 11:21:02;;;;;;;3.70;2.60;;;;;;;26.49;39.13;98634.27;107059;1256;60402;-38
2023/06/27 11:23:33;;;;;;;3.40;2.20;;;;;;;26.52;39.62;98629.00;107091;1256;60318;-39
2023/06/27 11:26:01;;;;;;;4.00;3.10;;;;;;;26.69;39.52;98631.55;107106;1256;74437;-39
2023/06/27 11:28:29;;;;;;;3.10;2.80;;;;;;;26.86;39.56;98626.42;107120;1260;67899;-39
2023/06/27 11:30:58;;;;;;;3.40;2.60;;;;;;;27.00;39.26;98620.95;107199;1257;72708;-39
2023/06/27 11:33:26;;;;;;;5.30;2.80;;;;;;;27.21;38.52;98616.50;107237;1256;60371;-39
2023/06/27 11:35:58;;;;;;;2.80;2.60;;;;;;;27.34;38.55;98616.79;107302;1256;60418;-39
2023/06/27 11:38:27;;;;;;;4.20;2.60;;;;;;;27.45;38.59;98623.19;107138;1257;74753;-39
2023/06/27 11:40:55;;;;;;;3.00;2.70;;;;;;;27.67;37.92;98616.58;107265;1257;67562;-39